x

San Clemente Basin - 27nm Se Of San Clemente Is, Ca (46086) Wave Buoy

9:50pm - Sun 29th Mar 2015 All times are PDT. -7 hours from GMT.

  • Sig Wave height 6.6ft
  • Swell Direction
  • Peak Period 16s
  • Average Period 9s
  • Wind
    2mph, 4mph gusts
  • Sea Temp 65°f
  • Air Temp 61°f
  • Sea Pressure 1016.6mb
  • San Clemente Basin - 27nm Se Of San Clemente Is, Ca
  • San Clemente Basin - 27nm Se Of San Clemente Is, Ca

More Historic Weather Station data

Upgrade to MSW Pro to gain access to the past 30 days of data for over 8000 Wavebouys and Weather Stations around the globe.

Join Pro

Comparision Forecast

View Surf forecast
   
Sun 03/29 9:50pm 6.5ft 16s 9s 2 4 mph 1016.6mb 65f 61f
8:50pm 7ft 16s 9s 9
mph
1016.3mb 65f 61f
7:50pm 6.5ft 16s 9s 11 16 mph 1015.6mb 65f 61f
6:50pm 6ft 17s 9s 13 16 mph 1015.1mb 65f 62f
5:50pm 6.5ft 17s 9s 11 13 mph 1015.2mb 66f 62f
4:50pm 6.5ft 16s 10s 11 13 mph 1015.5mb 66f 62f
3:50pm 7ft 16s 10s 11 13 mph 1015.7mb 66f 63f
2:50pm 6ft 17s 10s 11
mph
1016.2mb 67f 62f
1:50pm 6.5ft 17s 10s 4 7 mph 1016.8mb 67f 62f
12:50pm 6ft 16s 9s 4 7 mph 1017.6mb 66f 61f
11:50am 6.5ft 17s 9s  -  4 mph 1018.1mb 66f 62f
10:50am 6ft 17s 9s 2 4 mph 1018.3mb 65f 62f
9:50am 6ft 17s 8s 2 4 mph 1018mb 65f 61f
8:50am 6.5ft 17s 9s 4 9 mph 1017.6mb 64f 60f
7:50am 6.5ft 16s 9s 7 9 mph 1017.4mb 64f 60f
6:50am 6.5ft 16s 9s 7 11 mph 1017.1mb 64f 60f
5:50am 6.5ft 17s 9s 9 13 mph 1016.8mb 65f 60f
4:50am 6ft 17s 8s 13 16 mph 1016.6mb 65f 60f
3:50am 6.5ft 17s 9s 11 16 mph 1016.6mb 65f 60f
2:50am 6ft 16s 8s 9 13 mph 1016.8mb 65f 61f
1:50am 6ft 16s 8s 7 9 mph 1017.3mb 65f 61f
12:50am 6.5ft 17s 8s 7 11 mph 1018mb 65f 61f
Sat 03/28 11:50pm 6ft 16s 8s 11 13 mph 1017.9mb 65f 62f
10:50pm 6.5ft 17s 8s 9 11 mph 1017.6mb 65f 62f
9:50pm 6ft 17s 7s 9 11 mph 1017.3mb 65f 62f
8:50pm 6.5ft 17s 7s 13 16 mph 1017mb 65f 62f
7:50pm 7ft 17s 8s 16 18 mph 1016.4mb 65f 61f
6:50pm 6ft 13s 7s 16 18 mph 1016.2mb 65f 62f
5:50pm 6ft 17s 7s 16 18 mph 1016.1mb 65f 62f
4:50pm 6ft 13s 7s 16 18 mph 1016mb 65f 62f
3:50pm 5.5ft 17s 7s 16 18 mph 1016.5mb 65f 61f
2:50pm 5.5ft 17s 8s 16 18 mph 1017.2mb 65f 62f
1:50pm 6ft 13s 8s 13 16 mph 1017.4mb 65f 61f
12:50pm 6ft 17s 8s 13
mph
1018.3mb 65f 61f
11:50am 6ft 17s 8s 9 13 mph 1018.7mb 65f 62f
10:50am 6ft 14s 8s 7 11 mph 1019.1mb 65f 61f
9:50am 5.5ft 17s 7s  -  2 mph 1018.7mb 65f 60f
8:50am 6ft 19s 8s 2 4 mph 1018.2mb 65f 60f
7:50am 5.5ft 11s 7s  -  2 mph 1018.3mb 65f 60f
6:50am 5.5ft 15s 8s 7 9 mph 1017.7mb 65f 60f
5:50am 5ft 15s 7s 9 11 mph 1017.5mb 65f 60f
4:50am 5ft 11s 7s 11 13 mph 1017.3mb 65f 61f
3:50am 5ft 12s 7s 11 13 mph 1017.3mb 65f 60f
2:50am 5ft 15s 7s 11 13 mph 1017.9mb 65f 59f
1:50am 5ft 16s 7s 2 7 mph 1018mb 65f 59f
12:50am 4.5ft 11s 7s 7 9 mph 1018.3mb 64f 58f
Fri 03/27 11:50pm 5ft 12s 7s 11
mph
1018.6mb 64f 59f
10:50pm 5ft 15s 7s 11 16 mph 1018.5mb 64f 60f
9:50pm 5ft 16s 7s 9 11 mph 1017.9mb 64f 62f
8:50pm 5ft 15s 6s 11 13 mph 1017.5mb 65f 63f
7:50pm 5ft 16s 6s 18 20 mph 1016.2mb 65f 63f
6:50pm 5ft 16s 7s 18 20 mph 1016mb 65f 62f
5:50pm 5ft 16s 6s 16 18 mph 1016.1mb 65f 63f
4:50pm 4.5ft 16s 6s 16 18 mph 1016.3mb 65f 62f
3:50pm 4.5ft 16s 6s 18 20 mph 1016.4mb 65f 61f
2:50pm 4.5ft 15s 7s 20 22 mph 1017mb 65f 60f
1:50pm 4.5ft 16s 7s 11 13 mph 1017.6mb 65f 60f
12:50pm 4.5ft 16s 8s 9 13 mph 1018.4mb 65f 60f
11:50am 4.5ft 11s 7s 11 13 mph 1019.1mb 65f 61f
10:50am 4.5ft 15s 7s 11 13 mph 1019mb 65f 64f
9:50am 4.5ft 11s 7s 7 9 mph 1018.7mb 65f 64f
8:50am 4.5ft 15s 6s 9 11 mph 1018.2mb 65f 64f
7:50am 4.5ft 16s 7s 9 11 mph 1017.7mb 65f 64f
6:50am 4.5ft 16s 7s 13 16 mph 1017.3mb 65f 63f
5:50am 4.5ft 16s 7s 9 11 mph 1017.1mb 65f 64f
4:50am 4.5ft 16s 8s 13 16 mph 1016.5mb 65f 64f
3:50am 4.5ft 12s 8s 11 13 mph 1016.5mb 65f 64f
2:50am 4.5ft 16s 7s 7 9 mph 1016.9mb 65f 64f
1:50am 4.5ft 15s 8s 4 7 mph 1017.4mb 64f 64f
12:50am 5ft 16s 8s 4
mph
1017.7mb 64f 64f
Thu 03/26 11:50pm 5ft 16s 8s 4
mph
1017.8mb 64f 65f
10:50pm 4.5ft 16s 8s 4
mph
1017.6mb 64f 65f
9:50pm 4.5ft 17s 7s 9 11 mph 1017mb 65f 66f
8:50pm 5ft 11s 7s 11 13 mph 1016.1mb 65f 67f
7:50pm 4.5ft 8s 7s 13 16 mph 1015.6mb 65f 66f
6:50pm 4.5ft 11s 7s 13 18 mph 1015.3mb 65f 66f
5:50pm 5ft 8s 7s 13
mph
1015.5mb 65f 66f
4:50pm 5ft 8s 7s 11 16 mph 1015.6mb 65f 66f
3:50pm 5ft 11s 8s 9 11 mph 1015.8mb 65f 66f
2:50pm 5ft 11s 8s 11 13 mph 1016.6mb 66f 65f
1:50pm 5ft 8s 7s 9 11 mph 1017.4mb 66f 65f
12:50pm 5ft 11s 7s 7
mph
1018.2mb 66f 65f
11:50am 5.5ft 11s 8s 7 9 mph 1018.3mb 65f 65f
10:50am 5ft 12s 7s 7 9 mph 1019mb 65f 64f
9:50am 5ft 12s 7s 4 7 mph 1018.7mb 64f 64f
8:50am 5ft 11s 7s 4 7 mph 1018.1mb 64f 63f
7:50am 5ft 11s 7s 4
mph
1017.8mb 64f 63f
6:50am 5ft 11s 8s 4
mph
1017.4mb 64f 63f